Station info - map view · info · telemetry · weather · raw · status · beacons · messages · bulletins · browse · moving · my account
Callsign, ship name or locator: Clear       
It is possible to search using wildcards (*?) after a prefix. Example: OH*
APRS station IN3LFL-9 - show graphs
Map loading...
Mic-E message: En route
Location: 46°30.43' N 11°20.70' E - locator JN56QM11JR - show map - static map
1.1 miles Northeast bearing 29° from Bolzano, Provincia di Bolzano, Trentino-Alto Adige, Italy [?]
5.4 miles Northeast bearing 48° from San Michele, Provincia di Bolzano, Trentino-Alto Adige, Italy
75.9 miles North bearing 13° from Verona, Provincia di Verona, Veneto, Italy
87.5 miles Northwest bearing 328° from Venice, Provincia di Venezia, Veneto, Italy
Last position: 2018-05-02 06:53:20 EDT (23d 15h43m ago)
2018-05-02 12:53:20 CEST local time at Bolzano, Italy [?]
Altitude: 938 ft
Course: 168°
Device: Kenwood: TM-D700 (rig)
Last path: IN3LFL-9>TV3P43 via WIDE3-3,qAR,IR3BT (good)
Positions stored: 10724
Other SSIDs: IN3LFL
Stations near current position of IN3LFL-9 - show more
callsign distance last heard - EDT      callsign distance last heard - EDT
IN3LFL27.6 yards 270°2018-05-25 22:17:28 IN3GID-ND1.1 miles 190°2018-05-25 06:32:21
IN3EOE1.1 miles 203°2018-05-04 05:38:31 IN3GID-11.1 miles 194°2018-05-25 03:17:35
IN3EDH1.3 miles 227°2018-05-25 22:19:47 IN3GJG-Y1.8 miles 232°2018-05-21 12:12:29
IN3EXL-RP1.9 miles 228°2018-05-05 09:42:18 IW3BTS-112.0 miles 209°2018-05-25 11:43:51
IW3BUA-112.3 miles 220°2018-05-25 22:35:54 IW3BTS-92.3 miles 221°2018-05-25 20:00:19
IW3BUA2.3 miles 220°2018-05-24 15:19:38 IW3BTS2.3 miles 220°2018-05-25 11:47:37
IR3DG3.4 miles 153°2018-05-25 22:28:03 IW3BVH5.2 miles 291°2018-05-02 16:44:22
IW3BTS-R16.5 miles 260°2018-05-25 22:30:22 IN3FQQ-136.8 miles 299°2018-05-25 22:30:46
IN3XFQ-77.0 miles 258°2018-04-29 08:27:11 in3idn-58.3 miles 217°2018-05-22 06:52:17
IN3IDN8.5 miles 216°2018-04-30 03:41:20 DG8DDE-108.5 miles 293°2018-04-26 09:59:42
Stations which heard IN3LFL-9 directly on radio –
callsign pkts first heard - EDT last heard longest (tx => rx) longest at - EDT
IR3BT 50 2018-05-02 05:28:47 2018-05-02 06:53:20 JN56QM > JN56MD 29.3 miles 210° 2018-05-02 06:53:20
IR3AS 13 2018-05-02 03:32:00 2018-05-02 06:14:21 JN54SW > JN56QB 78.2 miles 352° 2018-05-02 03:32:00
IR4AN 1 2018-05-02 03:09:47 2018-05-02 03:09:47 JN54TU > JN54FK 62.5 miles 242° 2018-05-02 03:09:47
IN3XSV 10 2018-05-02 05:19:26 2018-05-02 06:01:52 JN56OG > JN55PX 18.5 miles 173° 2018-05-02 06:01:52
IN3RSV 23 2018-05-02 05:15:20 2018-05-02 05:47:21 JN56NE > JN55NV 18.2 miles 175° 2018-05-02 05:47:21
IW3BVH 15 2018-05-02 05:59:49 2018-05-02 06:52:19 JN56OF > JN56OM 20.3 miles 4° 2018-05-02 05:59:49
IZ3LBC 1 2018-05-02 04:58:33 2018-05-02 04:58:33 JN55JN > JN55KL 6.4 miles 141° 2018-05-02 04:58:33
IR4AZ 33 2018-05-02 02:42:36 2018-05-02 03:49:16 JN55RB > JN54TU 14.9 miles 150° 2018-05-02 03:49:16
IR2CV 2 2018-05-02 05:02:43 2018-05-02 05:10:13 JN55LR > JN55JC 45.0 miles 191° 2018-05-02 05:10:13
IQ4SC 4 2018-05-02 03:35:03 2018-05-02 04:53:25 JN55JM > JN54IO 65.2 miles 184° 2018-05-02 04:53:25
IR4UCI-11 1 2018-05-02 05:08:11 2018-05-02 05:08:11 JN55KQ > JN54MM 81.2 miles 176° 2018-05-02 05:08:11
IU2GOH 3 2018-05-02 04:47:14 2018-05-02 05:05:58 JN55KP > JN55BL 39.2 miles 251° 2018-05-02 05:05:58
IZ4AQM 1 2018-05-02 04:46:13 2018-05-02 04:46:13 JN55JL > JN54TD 100.6 miles 156° 2018-05-02 04:46:13
IQ3VO 47 2018-05-02 03:04:33 2018-05-02 04:49:17 JN54TU > JN55MQ 64.6 miles 335° 2018-05-02 03:04:33
IR3AO 1 2018-05-02 03:57:59 2018-05-02 03:57:59 JN55QC > JN56WK 94.3 miles 13° 2018-05-02 03:57:59
IR6UDA-11 2 2018-05-02 03:21:15 2018-05-02 03:36:09 JN54SW > JN63EU 86.5 miles 153° 2018-05-02 03:36:09
IR3UDH 1 2018-05-02 05:31:55 2018-05-02 05:31:55 JN56NB > JN56TC 26.3 miles 82° 2018-05-02 05:31:55
IR3UDX 3 2018-05-02 05:20:50 2018-05-02 05:33:50 JN56NA > JN55MV 9.2 miles 207° 2018-05-02 05:33:50
IR3EP-11 6 2018-05-02 03:16:06 2018-05-02 04:21:15 JN54TV > JN55SK 37.9 miles 354° 2018-05-02 03:16:06

Only position packets which were originated by the station are shown here. The range statistics show some extra long hops, because some digipeaters do not correctly add themselves to the digipeater path. Please check the raw packets.
About this site
This page shows real-time information collected from the Automatic Position Reporting System Internet network (APRS-IS). APRS is used by amateur (ham) radio operators to transmit real-time position information, weather data, telemetry and messages over the radio. A vehicle equipped with a GPS receiver, a VHF transmitter or HF transceiver and a small computer device called a tracker transmits it's location, speed and course in a small data packet, which is then received by a nearby iGate receiving site which forwards the packet on the Internet. Systems connected to the Internet can send information on the APRS-IS without a radio transmitter, or collect and display information transmitted anywhere in the world.
FAQ · Blog · Discussion group · Linking to aprs.fi · AIS sites · Service status · Database statistics · Advertising on aprs.fi · Technical details · API · Change log · Planned changes · Credits and thanks · Terms Of Service · iPhone/iPad APRS